Time;durP1;ratioP1;P1;durP2;ratioP2;P2;SDS_P1;SDS_P2;PMS_P1;PMS_P2;Temp;Humidity;BMP_temperature;BMP_pressure;BME280_temperature;BME280_humidity;BME280_pressure;Samples;Min_cycle;Max_cycle;Signal;HPM_P1;HPM_P2
2023/12/14 00:00:08;;;;;;;44.65;25.20;;;6.90;99.90;;;;;;2080075;28;20102;-85
2023/12/14 00:01:10;;;;;;;42.90;25.00;;;6.80;99.90;;;;;;2070536;28;20144;-85
2023/12/14 00:02:10;;;;;;;45.55;24.65;;;6.80;99.90;;;;;;2083264;28;20495;-86
2023/12/14 00:03:11;;;;;;;48.45;25.48;;;6.80;99.90;;;;;;2089162;28;20119;-85
2023/12/14 00:04:12;;;;;;;43.15;24.70;;;6.80;99.90;;;;;;2081042;28;20030;-86
2023/12/14 00:05:12;;;;;;;41.85;24.02;;;6.80;99.90;;;;;;2084684;28;20070;-86
2023/12/14 00:06:13;;;;;;;43.08;24.27;;;6.80;99.90;;;;;;2080621;28;20069;-85
2023/12/14 00:07:15;;;;;;;40.67;23.50;;;6.80;99.90;;;;;;2080116;28;20480;-85
2023/12/14 00:08:15;;;;;;;44.38;24.50;;;6.80;99.90;;;;;;2087222;28;20029;-87
2023/12/14 00:09:16;;;;;;;42.63;24.17;;;6.70;99.90;;;;;;2077846;28;20029;-86
2023/12/14 00:10:17;;;;;;;44.90;24.80;;;6.70;99.90;;;;;;2077800;28;20059;-86
2023/12/14 00:11:18;;;;;;;43.00;24.60;;;6.70;99.90;;;;;;2082368;28;20005;-86
2023/12/14 00:12:18;;;;;;;43.05;24.15;;;6.70;99.90;;;;;;2089813;28;20035;-87
2023/12/14 00:13:19;;;;;;;42.33;23.95;;;6.70;99.90;;;;;;2087938;28;20029;-87
2023/12/14 00:14:20;;;;;;;45.03;24.65;;;6.70;99.90;;;;;;2084098;28;20026;-87
2023/12/14 00:15:20;;;;;;;45.75;24.80;;;6.70;99.90;;;;;;2080745;28;20060;-87
2023/12/14 00:16:21;;;;;;;41.67;23.90;;;6.70;99.90;;;;;;2084330;28;20043;-88
2023/12/14 00:17:21;;;;;;;45.28;24.60;;;6.70;99.90;;;;;;2081643;28;20064;-86
2023/12/14 00:18:22;;;;;;;42.83;24.60;;;6.70;99.90;;;;;;2085773;28;20025;-88
2023/12/14 00:19:23;;;;;;;43.88;23.95;;;6.70;99.90;;;;;;2084895;28;20087;-87
2023/12/14 00:20:24;;;;;;;41.55;23.80;;;6.70;99.90;;;;;;2080817;28;20562;-88
2023/12/14 00:21:24;;;;;;;41.88;23.90;;;6.70;99.90;;;;;;2091373;28;20028;-89
2023/12/14 00:22:25;;;;;;;40.60;22.95;;;6.80;99.90;;;;;;2078389;28;20040;-88
2023/12/14 00:23:26;;;;;;;45.15;24.92;;;6.80;99.90;;;;;;2078886;28;20113;-82
2023/12/14 00:24:26;;;;;;;46.45;24.98;;;6.80;99.90;;;;;;2075705;28;20107;-88
2023/12/14 00:25:27;;;;;;;48.67;25.92;;;6.80;99.90;;;;;;2082322;28;20048;-88
2023/12/14 00:26:28;;;;;;;46.00;25.70;;;6.70;99.90;;;;;;2078499;28;20040;-86
2023/12/14 00:27:28;;;;;;;46.83;26.23;;;6.80;99.90;;;;;;2081410;28;20029;-87
2023/12/14 00:28:29;;;;;;;43.95;24.60;;;6.80;99.90;;;;;;2081107;28;20032;-88
2023/12/14 00:29:29;;;;;;;45.58;25.30;;;6.80;99.90;;;;;;2078734;28;20486;-87
2023/12/14 00:30:30;;;;;;;48.53;24.30;;;6.80;99.90;;;;;;2080613;28;20044;-88
2023/12/14 00:31:30;;;;;;;43.47;24.40;;;6.80;99.90;;;;;;2077717;28;20033;-86
2023/12/14 00:32:31;;;;;;;44.45;24.13;;;6.90;99.90;;;;;;2085177;28;20365;-88
2023/12/14 00:33:32;;;;;;;43.63;24.35;;;6.80;99.90;;;;;;2089065;28;20041;-86
2023/12/14 00:34:32;;;;;;;42.75;24.20;;;6.70;99.90;;;;;;2077328;28;20063;-87
2023/12/14 00:35:33;;;;;;;42.10;23.85;;;6.70;99.90;;;;;;2079731;28;20040;-88
2023/12/14 00:36:33;;;;;;;42.00;24.10;;;6.70;99.90;;;;;;2072588;28;20092;-88
2023/12/14 00:37:34;;;;;;;43.67;24.83;;;6.70;99.90;;;;;;2069868;28;20026;-87
2023/12/14 00:38:34;;;;;;;45.35;25.20;;;6.70;99.90;;;;;;2088144;28;20028;-87
2023/12/14 00:39:35;;;;;;;45.22;26.05;;;6.60;99.90;;;;;;2089048;28;20032;-88
2023/12/14 00:40:36;;;;;;;47.88;26.17;;;6.60;99.90;;;;;;2082495;28;20112;-89
2023/12/14 00:41:36;;;;;;;47.20;25.90;;;6.60;99.90;;;;;;2081487;28;20040;-88
2023/12/14 00:42:37;;;;;;;46.80;25.38;;;6.60;99.90;;;;;;2080840;28;20029;-88
2023/12/14 00:43:38;;;;;;;45.22;24.80;;;6.60;99.90;;;;;;2090073;28;20035;-87
2023/12/14 00:44:38;;;;;;;47.60;25.67;;;6.60;99.90;;;;;;2077915;28;20114;-87
2023/12/14 00:45:41;;;;;;;44.45;24.73;;;6.60;99.90;;;;;;2074947;28;20030;-87
2023/12/14 00:46:41;;;;;;;45.20;24.75;;;6.60;99.90;;;;;;2087314;28;20041;-87
2023/12/14 00:47:42;;;;;;;43.15;25.15;;;6.60;99.90;;;;;;2080430;28;20057;-85
2023/12/14 00:48:43;;;;;;;46.03;25.58;;;6.60;99.90;;;;;;2081500;28;20025;-88
2023/12/14 00:49:43;;;;;;;45.65;25.85;;;6.60;99.90;;;;;;2078801;28;20053;-86
2023/12/14 00:50:44;;;;;;;46.00;25.90;;;6.60;99.90;;;;;;2070200;28;20049;-88
2023/12/14 00:51:44;;;;;;;43.83;25.25;;;6.60;99.90;;;;;;2074566;28;20033;-88
2023/12/14 00:52:45;;;;;;;42.78;24.50;;;6.60;99.90;;;;;;2089242;28;20461;-89
2023/12/14 00:53:46;;;;;;;43.33;24.67;;;6.60;99.90;;;;;;2083640;28;20503;-87
2023/12/14 00:54:46;;;;;;;46.03;24.90;;;6.60;99.90;;;;;;2080186;28;20352;-87
2023/12/14 00:55:47;;;;;;;45.92;24.85;;;6.60;99.90;;;;;;2086989;28;20495;-87
2023/12/14 00:56:48;;;;;;;44.53;24.95;;;6.60;99.90;;;;;;2090143;28;20036;-87
2023/12/14 00:57:49;;;;;;;41.72;24.35;;;6.60;99.90;;;;;;2087429;28;20032;-88
2023/12/14 00:58:49;;;;;;;44.13;24.65;;;6.60;99.90;;;;;;2088487;28;20013;-88
2023/12/14 00:59:50;;;;;;;45.40;25.25;;;6.60;99.90;;;;;;2089183;28;20058;-87
2023/12/14 01:00:50;;;;;;;45.28;25.35;;;6.60;99.90;;;;;;2083494;28;20025;-87
2023/12/14 01:01:51;;;;;;;47.33;25.50;;;6.60;99.90;;;;;;2073107;28;20511;-87
2023/12/14 01:02:51;;;;;;;46.95;25.38;;;6.70;99.90;;;;;;2079931;28;20025;-87
2023/12/14 01:03:52;;;;;;;46.50;24.67;;;6.70;99.90;;;;;;2078303;28;20033;-87
2023/12/14 01:04:52;;;;;;;45.03;24.33;;;6.70;99.90;;;;;;2077759;28;20037;-87
2023/12/14 01:05:53;;;;;;;43.55;24.02;;;6.70;99.90;;;;;;2081005;28;20029;-87
2023/12/14 01:06:53;;;;;;;43.10;23.55;;;6.70;99.90;;;;;;2079105;28;20025;-88
2023/12/14 01:07:54;;;;;;;45.13;25.60;;;6.70;99.90;;;;;;2082155;28;20025;-88
2023/12/14 01:08:54;;;;;;;47.53;26.15;;;6.70;99.90;;;;;;2081953;28;20029;-86
2023/12/14 01:09:55;;;;;;;42.35;25.10;;;6.70;99.90;;;;;;2081079;28;20031;-87
2023/12/14 01:10:56;;;;;;;48.90;26.40;;;6.70;99.90;;;;;;2077566;28;20025;-85
2023/12/14 01:11:56;;;;;;;47.13;26.45;;;6.70;99.90;;;;;;2081185;28;20045;-87
2023/12/14 01:12:57;;;;;;;45.65;26.00;;;6.70;99.90;;;;;;2081176;28;20430;-87
2023/12/14 01:13:57;;;;;;;43.90;25.38;;;6.70;99.90;;;;;;2077974;28;20056;-87
2023/12/14 01:14:58;;;;;;;46.42;25.73;;;6.70;99.90;;;;;;2081642;28;20035;-84
2023/12/14 01:15:59;;;;;;;45.95;25.20;;;6.70;99.90;;;;;;2089270;28;20048;-87
2023/12/14 01:16:59;;;;;;;48.25;25.83;;;6.70;99.90;;;;;;2085390;28;20598;-85
2023/12/14 01:18:00;;;;;;;45.60;26.52;;;6.60;99.90;;;;;;2089050;28;20103;-87
2023/12/14 01:19:00;;;;;;;49.08;26.90;;;6.70;99.90;;;;;;2078041;28;20025;-87
2023/12/14 01:20:02;;;;;;;48.40;27.15;;;6.70;99.90;;;;;;2081270;28;20029;-86
2023/12/14 01:21:03;;;;;;;50.33;27.42;;;6.70;99.90;;;;;;2082089;28;20061;-87
2023/12/14 01:22:04;;;;;;;47.60;26.60;;;6.70;99.90;;;;;;2085681;28;20192;-87
2023/12/14 01:23:04;;;;;;;47.47;27.08;;;6.70;99.90;;;;;;2088994;28;20021;-87
2023/12/14 01:24:05;;;;;;;46.53;26.80;;;6.70;99.90;;;;;;2081960;28;20032;-87
2023/12/14 01:25:06;;;;;;;47.75;26.85;;;6.70;99.90;;;;;;2086489;28;20182;-87
2023/12/14 01:26:06;;;;;;;48.58;26.50;;;6.70;99.90;;;;;;2081241;28;20068;-86
2023/12/14 01:27:09;;;;;;;48.60;27.13;;;6.70;99.90;;;;;;2077777;28;20037;-86
2023/12/14 01:28:09;;;;;;;48.13;26.05;;;6.70;99.90;;;;;;2080441;28;20037;-86
2023/12/14 01:29:11;;;;;;;46.00;26.65;;;6.70;99.90;;;;;;2080557;28;20037;-86
2023/12/14 01:30:12;;;;;;;47.47;26.25;;;6.70;99.90;;;;;;2081688;28;20073;-86
2023/12/14 01:31:12;;;;;;;43.67;25.23;;;6.70;99.90;;;;;;2070951;28;20037;-86
2023/12/14 01:32:13;;;;;;;46.53;25.70;;;6.80;99.90;;;;;;2072169;28;20084;-86
2023/12/14 01:33:14;;;;;;;45.15;25.08;;;6.80;99.90;;;;;;2080842;28;20037;-87
2023/12/14 01:34:15;;;;;;;44.42;24.90;;;6.80;99.90;;;;;;2081977;28;20025;-87
2023/12/14 01:35:16;;;;;;;46.17;24.35;;;6.90;99.90;;;;;;2080642;28;20404;-86
2023/12/14 01:36:24;;;;;;;45.75;24.00;;;6.90;99.90;;;;;;2082987;28;20032;-87
2023/12/14 01:37:24;;;;;;;43.88;23.98;;;6.90;99.90;;;;;;2091586;28;20050;-87
2023/12/14 01:38:25;;;;;;;43.55;23.70;;;6.90;99.90;;;;;;2088970;28;20139;-88
2023/12/14 01:39:25;;;;;;;42.67;23.70;;;6.90;99.90;;;;;;2085249;28;20753;-87
2023/12/14 01:40:26;;;;;;;41.63;23.17;;;6.90;99.90;;;;;;2078343;28;20030;-83
2023/12/14 01:41:26;;;;;;;41.40;23.65;;;6.90;99.90;;;;;;2081402;28;20051;-87
2023/12/14 01:42:27;;;;;;;42.65;23.90;;;6.90;99.90;;;;;;2089762;28;20029;-87
2023/12/14 01:43:27;;;;;;;46.88;24.83;;;6.80;99.90;;;;;;2087725;28;20041;-87
2023/12/14 01:44:28;;;;;;;45.72;24.77;;;6.80;99.90;;;;;;2091203;28;20021;-87
2023/12/14 01:45:29;;;;;;;44.38;24.58;;;6.80;99.90;;;;;;2092092;28;20082;-87
2023/12/14 01:46:29;;;;;;;41.85;22.83;;;6.80;99.90;;;;;;2082680;28;20033;-80
2023/12/14 01:47:30;;;;;;;46.20;24.63;;;6.80;99.90;;;;;;2080515;28;20049;-85
2023/12/14 01:48:30;;;;;;;45.13;24.23;;;6.80;99.90;;;;;;2087534;28;20325;-87
2023/12/14 01:49:31;;;;;;;44.38;23.58;;;6.90;99.90;;;;;;2087179;28;20025;-87
2023/12/14 01:50:32;;;;;;;41.90;23.80;;;6.90;99.90;;;;;;2084153;28;20033;-86
2023/12/14 01:51:33;;;;;;;44.88;24.20;;;6.90;99.90;;;;;;2084641;28;20025;-87
2023/12/14 01:52:34;;;;;;;47.08;24.70;;;6.80;99.90;;;;;;2087250;28;20041;-86
2023/12/14 01:53:34;;;;;;;44.58;23.65;;;6.80;99.90;;;;;;2078395;28;20037;-85
2023/12/14 01:54:35;;;;;;;43.38;24.23;;;6.80;99.90;;;;;;2082207;28;20514;-85
2023/12/14 01:55:35;;;;;;;43.70;23.90;;;6.70;99.90;;;;;;2078940;28;20041;-85
2023/12/14 01:56:36;;;;;;;44.17;24.48;;;6.70;99.90;;;;;;2081978;28;20048;-85
2023/12/14 01:57:36;;;;;;;46.17;24.98;;;6.70;99.90;;;;;;2089988;28;20555;-85
2023/12/14 01:58:37;;;;;;;46.22;25.10;;;6.70;99.90;;;;;;2087547;28;20045;-85
2023/12/14 01:59:37;;;;;;;45.50;24.58;;;6.70;99.90;;;;;;2089911;28;20048;-86
2023/12/14 02:01:03;;;;;;;45.17;24.23;;;6.70;99.90;;;;;;2080216;28;20431;-85
2023/12/14 02:02:05;;;;;;;44.67;25.02;;;6.70;99.90;;;;;;2072764;28;20119;-85
2023/12/14 02:03:06;;;;;;;48.13;25.27;;;6.70;99.90;;;;;;2079675;28;20037;-85
2023/12/14 02:04:07;;;;;;;44.42;24.33;;;6.70;99.90;;;;;;2080775;28;20033;-85
2023/12/14 02:05:07;;;;;;;45.33;25.25;;;6.80;99.90;;;;;;2076761;28;20030;-85
2023/12/14 02:06:08;;;;;;;46.17;24.85;;;6.70;99.90;;;;;;2079140;28;20384;-85
2023/12/14 02:07:08;;;;;;;46.80;25.05;;;6.70;99.90;;;;;;2072040;28;20160;-86
2023/12/14 02:08:09;;;;;;;45.78;24.55;;;6.80;99.90;;;;;;2076660;28;20041;-86
2023/12/14 02:09:09;;;;;;;45.50;25.10;;;6.80;99.90;;;;;;2079833;28;20044;-86
2023/12/14 02:10:10;;;;;;;44.60;25.55;;;6.80;99.90;;;;;;2081248;28;20063;-86
2023/12/14 02:11:11;;;;;;;45.47;24.67;;;6.70;99.90;;;;;;2078672;28;20033;-86
2023/12/14 02:12:12;;;;;;;47.45;25.25;;;6.70;99.90;;;;;;2078978;28;20492;-86
2023/12/14 02:13:12;;;;;;;44.30;24.70;;;6.70;99.90;;;;;;2080539;28;20090;-85
2023/12/14 02:14:13;;;;;;;48.50;25.85;;;6.60;99.90;;;;;;2078565;28;20026;-85
2023/12/14 02:15:13;;;;;;;48.70;24.88;;;6.60;99.90;;;;;;2079565;28;20021;-85
2023/12/14 02:16:15;;;;;;;45.35;24.13;;;6.60;99.90;;;;;;2080783;28;20034;-86
2023/12/14 02:17:15;;;;;;;44.70;25.10;;;6.60;99.90;;;;;;2078733;28;20101;-86
2023/12/14 02:18:16;;;;;;;44.75;25.38;;;6.60;99.90;;;;;;2080396;28;20028;-86
2023/12/14 02:19:16;;;;;;;47.60;25.80;;;6.60;99.90;;;;;;2079253;28;20025;-86
2023/12/14 02:20:17;;;;;;;47.05;25.83;;;6.60;99.90;;;;;;2078924;28;20107;-85
2023/12/14 02:21:18;;;;;;;48.33;26.45;;;6.60;99.90;;;;;;2080539;28;20069;-85
2023/12/14 02:22:19;;;;;;;46.47;25.33;;;6.60;99.90;;;;;;2078821;28;20083;-86
2023/12/14 02:23:20;;;;;;;47.53;25.20;;;6.60;99.90;;;;;;2085201;28;20720;-86
2023/12/14 02:24:20;;;;;;;45.42;24.98;;;6.60;99.90;;;;;;2085188;28;20029;-86
2023/12/14 02:25:22;;;;;;;47.05;25.30;;;6.60;99.90;;;;;;2076965;28;20104;-85
2023/12/14 02:26:23;;;;;;;47.90;25.63;;;6.60;99.90;;;;;;2087515;28;20093;-86
2023/12/14 02:27:23;;;;;;;44.42;24.88;;;6.60;99.90;;;;;;2085391;28;20118;-86
2023/12/14 02:28:24;;;;;;;43.78;23.92;;;6.50;99.90;;;;;;2076510;28;20021;-86
2023/12/14 02:29:24;;;;;;;44.95;24.45;;;6.50;99.90;;;;;;2076389;28;20021;-86
2023/12/14 02:30:25;;;;;;;44.60;24.50;;;6.50;99.90;;;;;;2077086;28;20499;-88
2023/12/14 02:31:26;;;;;;;41.33;23.30;;;6.50;99.90;;;;;;2075715;28;20053;-83
2023/12/14 02:32:26;;;;;;;44.08;24.73;;;6.50;99.90;;;;;;2088523;28;20099;-86
2023/12/14 02:33:27;;;;;;;42.03;23.50;;;6.50;99.90;;;;;;2084581;28;20038;-87
2023/12/14 02:34:27;;;;;;;43.95;23.73;;;6.50;99.90;;;;;;2075731;28;20022;-87
2023/12/14 02:35:28;;;;;;;43.75;24.10;;;6.60;99.90;;;;;;2073106;28;20700;-85
2023/12/14 02:36:28;;;;;;;44.75;24.73;;;6.50;99.90;;;;;;2079766;28;20511;-86
2023/12/14 02:37:29;;;;;;;44.47;24.42;;;6.50;99.90;;;;;;2076610;28;20052;-86
2023/12/14 02:38:29;;;;;;;45.42;24.90;;;6.50;99.90;;;;;;2084352;28;20423;-86
2023/12/14 02:39:30;;;;;;;44.25;23.77;;;6.50;99.90;;;;;;2083997;28;20041;-86
2023/12/14 02:40:30;;;;;;;44.80;24.75;;;6.50;99.90;;;;;;2079397;28;20033;-87
2023/12/14 02:41:31;;;;;;;45.83;24.90;;;6.40;99.90;;;;;;2084229;28;20106;-85
2023/12/14 02:42:32;;;;;;;44.78;25.17;;;6.50;99.90;;;;;;2071672;28;20026;-87
2023/12/14 02:43:33;;;;;;;44.17;24.05;;;6.50;99.90;;;;;;2060110;28;20053;-85
2023/12/14 02:44:33;;;;;;;44.65;24.92;;;6.50;99.90;;;;;;2067696;28;20037;-86
2023/12/14 02:45:34;;;;;;;46.58;24.90;;;6.50;99.90;;;;;;2068103;28;20041;-85
2023/12/14 02:46:35;;;;;;;44.88;24.33;;;6.50;99.90;;;;;;2079984;28;20040;-86
2023/12/14 02:47:35;;;;;;;46.88;25.55;;;6.50;99.90;;;;;;2088000;28;20228;-85
2023/12/14 02:48:36;;;;;;;43.60;25.15;;;6.50;99.90;;;;;;2084070;28;20041;-88
2023/12/14 02:49:36;;;;;;;43.72;25.20;;;6.40;99.90;;;;;;2080306;28;20255;-86
2023/12/14 02:50:37;;;;;;;42.80;23.77;;;6.40;99.90;;;;;;2076486;28;20029;-86
2023/12/14 02:51:37;;;;;;;48.08;24.42;;;6.50;99.90;;;;;;2084283;28;20399;-84
2023/12/14 02:52:38;;;;;;;45.50;24.70;;;6.50;99.90;;;;;;2083946;28;20110;-86
2023/12/14 02:53:38;;;;;;;44.78;24.30;;;6.50;99.90;;;;;;2076833;28;20025;-85
2023/12/14 02:54:40;;;;;;;48.22;26.38;;;6.50;99.90;;;;;;2077867;28;20477;-85
2023/12/14 02:55:40;;;;;;;44.85;25.05;;;6.60;99.90;;;;;;2079870;28;20082;-85
2023/12/14 02:56:41;;;;;;;47.63;25.88;;;6.50;99.90;;;;;;2085067;28;20037;-86
2023/12/14 02:57:41;;;;;;;45.95;25.45;;;6.50;99.90;;;;;;2088617;28;20025;-86
2023/12/14 02:58:42;;;;;;;47.72;25.63;;;6.50;99.90;;;;;;2082700;28;20025;-87
2023/12/14 02:59:42;;;;;;;45.55;25.70;;;6.60;99.90;;;;;;2078899;28;20069;-86
2023/12/14 03:00:43;;;;;;;49.03;26.42;;;6.60;99.90;;;;;;2079165;28;20033;-85
2023/12/14 03:01:43;;;;;;;46.22;25.75;;;6.60;99.90;;;;;;2080072;28;20618;-86
2023/12/14 03:02:44;;;;;;;47.58;25.77;;;6.60;99.90;;;;;;2076849;28;20040;-86
2023/12/14 03:03:44;;;;;;;46.50;26.08;;;6.60;99.90;;;;;;2078028;28;20029;-86
2023/12/14 03:04:45;;;;;;;47.25;25.80;;;6.60;99.90;;;;;;2083053;28;20029;-87
2023/12/14 03:05:45;;;;;;;46.28;25.60;;;6.60;99.90;;;;;;2088813;28;20186;-87
2023/12/14 03:06:46;;;;;;;44.42;25.45;;;6.60;99.90;;;;;;2090098;28;20029;-83
2023/12/14 03:07:46;;;;;;;47.25;25.95;;;6.60;99.90;;;;;;2076219;28;20453;-87
2023/12/14 03:08:47;;;;;;;41.28;23.65;;;6.70;99.90;;;;;;2083806;28;20129;-85
2023/12/14 03:09:47;;;;;;;42.33;24.50;;;6.70;99.90;;;;;;2082874;28;20029;-87
2023/12/14 03:10:48;;;;;;;45.00;24.88;;;6.70;99.90;;;;;;2078594;28;20022;-86
2023/12/14 03:11:49;;;;;;;44.50;24.95;;;6.70;99.90;;;;;;2073190;28;20526;-87
2023/12/14 03:12:49;;;;;;;44.03;24.33;;;6.60;99.90;;;;;;2078583;28;20028;-86
2023/12/14 03:13:50;;;;;;;44.17;23.98;;;6.60;99.90;;;;;;2079003;28;20033;-87
2023/12/14 03:14:50;;;;;;;43.28;24.05;;;6.60;99.90;;;;;;2077950;28;20034;-87
2023/12/14 03:15:51;;;;;;;43.95;24.27;;;6.70;99.90;;;;;;2088103;28;20035;-87
2023/12/14 03:16:52;;;;;;;43.75;24.55;;;6.70;99.90;;;;;;2086896;28;20100;-86
2023/12/14 03:17:53;;;;;;;43.67;24.50;;;6.70;99.90;;;;;;2078297;28;20487;-86
2023/12/14 03:18:53;;;;;;;43.85;23.80;;;6.70;99.90;;;;;;2077395;28;20030;-87
2023/12/14 03:19:54;;;;;;;43.92;24.80;;;6.70;99.90;;;;;;2084329;28;20021;-87
2023/12/14 03:20:54;;;;;;;43.15;24.10;;;6.70;99.90;;;;;;2086530;28;20060;-87
2023/12/14 03:21:55;;;;;;;43.90;24.42;;;6.70;99.90;;;;;;2085288;28;20053;-86
2023/12/14 03:22:55;;;;;;;46.35;24.38;;;6.70;99.90;;;;;;2079934;28;20140;-87
2023/12/14 03:23:56;;;;;;;46.10;25.10;;;6.70;99.90;;;;;;2087634;28;20044;-87
2023/12/14 03:24:56;;;;;;;44.30;25.10;;;6.70;99.90;;;;;;2078862;28;20044;-86
2023/12/14 03:25:57;;;;;;;44.63;24.92;;;6.70;99.90;;;;;;2077428;28;20029;-87
2023/12/14 03:26:57;;;;;;;43.15;24.50;;;6.70;99.90;;;;;;2080144;28;20026;-85
2023/12/14 03:27:58;;;;;;;45.38;24.88;;;6.70;99.90;;;;;;2071375;28;20021;-85
2023/12/14 03:28:58;;;;;;;46.53;24.77;;;6.70;99.90;;;;;;2071452;28;20033;-86
2023/12/14 03:29:59;;;;;;;45.75;25.75;;;6.70;99.90;;;;;;2076572;28;20032;-86
2023/12/14 03:31:00;;;;;;;49.50;26.15;;;6.70;99.90;;;;;;2079761;28;20101;-86
2023/12/14 03:32:01;;;;;;;44.58;25.42;;;6.70;99.90;;;;;;2076554;28;20135;-86
2023/12/14 03:33:01;;;;;;;47.22;26.10;;;6.70;99.90;;;;;;2077623;28;20384;-84
2023/12/14 03:34:02;;;;;;;46.17;25.63;;;6.70;99.90;;;;;;2080801;28;20311;-86
2023/12/14 03:35:03;;;;;;;49.70;26.27;;;6.70;99.90;;;;;;2076583;28;20040;-86
2023/12/14 03:36:04;;;;;;;48.20;26.48;;;6.70;99.90;;;;;;2077354;28;20271;-87
2023/12/14 03:37:04;;;;;;;46.35;26.00;;;6.70;99.90;;;;;;2076877;28;20026;-85
2023/12/14 03:38:05;;;;;;;47.40;25.98;;;6.70;99.90;;;;;;2081007;28;20849;-86
2023/12/14 03:39:06;;;;;;;45.15;25.55;;;6.80;99.90;;;;;;2076876;28;20091;-86
2023/12/14 03:40:07;;;;;;;48.78;25.67;;;6.80;99.90;;;;;;2079961;28;20108;-87
2023/12/14 03:41:07;;;;;;;45.92;25.13;;;6.80;99.90;;;;;;2080615;28;20064;-84
2023/12/14 03:42:08;;;;;;;44.67;25.65;;;6.80;99.90;;;;;;2083970;28;20032;-86
2023/12/14 03:43:08;;;;;;;44.22;25.10;;;6.70;99.90;;;;;;2087994;28;20029;-87
2023/12/14 03:44:09;;;;;;;47.33;25.95;;;6.70;99.90;;;;;;2081054;28;20041;-86
2023/12/14 03:45:10;;;;;;;50.22;27.27;;;6.70;99.90;;;;;;2079864;28;20033;-87
2023/12/14 03:46:11;;;;;;;46.45;25.98;;;6.70;99.90;;;;;;2076166;28;20049;-86
2023/12/14 03:47:11;;;;;;;45.85;26.02;;;6.70;99.90;;;;;;2080936;28;20024;-87
2023/12/14 03:48:12;;;;;;;47.42;26.38;;;6.70;99.90;;;;;;2088362;28;20035;-87
2023/12/14 03:49:13;;;;;;;46.63;25.75;;;6.70;99.90;;;;;;2077872;28;20511;-86
2023/12/14 03:50:13;;;;;;;44.33;24.88;;;6.70;99.90;;;;;;2087752;28;20064;-87
2023/12/14 03:51:18;;;;;;;43.15;24.95;;;6.80;99.90;;;;;;2088874;28;20059;-86
2023/12/14 03:52:18;;;;;;;43.83;24.20;;;6.80;99.90;;;;;;2086219;28;20002;-86
2023/12/14 03:53:19;;;;;;;43.67;25.30;;;6.80;99.90;;;;;;2085948;28;20033;-86
2023/12/14 03:54:20;;;;;;;48.53;25.15;;;6.80;99.90;;;;;;2079514;28;20041;-86
2023/12/14 03:55:20;;;;;;;49.08;25.77;;;6.80;99.90;;;;;;2071308;28;20072;-86
2023/12/14 03:56:21;;;;;;;42.63;23.45;;;6.80;99.90;;;;;;2074481;28;20028;-86
2023/12/14 03:57:21;;;;;;;45.03;24.38;;;6.80;99.90;;;;;;2070525;28;20037;-87
2023/12/14 03:58:22;;;;;;;41.97;22.92;;;6.80;99.90;;;;;;2080115;28;20033;-86
2023/12/14 03:59:22;;;;;;;45.00;24.15;;;6.80;99.90;;;;;;2081858;28;20039;-86
2023/12/14 04:00:23;;;;;;;41.17;23.00;;;6.90;99.90;;;;;;2069460;28;20436;-87
2023/12/14 04:01:23;;;;;;;42.38;23.88;;;6.90;99.90;;;;;;2069236;28;20065;-86
2023/12/14 04:02:24;;;;;;;39.90;23.17;;;6.90;99.90;;;;;;2086156;28;20487;-86
2023/12/14 04:03:25;;;;;;;45.35;25.25;;;6.90;99.90;;;;;;2086291;28;20760;-86
2023/12/14 04:04:25;;;;;;;41.25;23.17;;;6.90;99.90;;;;;;2080054;28;20452;-87
2023/12/14 04:05:26;;;;;;;41.60;23.15;;;7.00;99.90;;;;;;2086421;28;20106;-87
2023/12/14 04:06:26;;;;;;;41.88;23.65;;;7.00;99.90;;;;;;2087460;28;20033;-87
2023/12/14 04:07:27;;;;;;;42.83;23.77;;;7.00;99.90;;;;;;2076998;28;20032;-87
2023/12/14 04:08:27;;;;;;;43.95;23.45;;;6.90;99.90;;;;;;2079953;28;20452;-86
2023/12/14 04:09:28;;;;;;;42.03;23.55;;;6.90;99.90;;;;;;2083389;28;20037;-86
2023/12/14 04:10:28;;;;;;;41.78;22.95;;;7.00;99.90;;;;;;2079722;28;20028;-87
2023/12/14 04:11:29;;;;;;;40.05;22.88;;;6.90;99.90;;;;;;2088120;28;20037;-85
2023/12/14 04:12:29;;;;;;;41.42;23.17;;;7.00;99.90;;;;;;2087350;28;20024;-86
2023/12/14 04:13:30;;;;;;;40.50;22.50;;;6.90;99.90;;;;;;2085386;28;20480;-87
2023/12/14 04:14:30;;;;;;;38.83;22.83;;;6.90;99.90;;;;;;2083510;28;20083;-85
2023/12/14 04:15:31;;;;;;;41.90;24.02;;;6.90;99.90;;;;;;2077710;28;20498;-86
2023/12/14 04:16:31;;;;;;;42.22;23.17;;;7.00;99.90;;;;;;2076140;28;20569;-87
2023/12/14 04:17:32;;;;;;;40.70;23.35;;;7.00;99.90;;;;;;2080277;28;20033;-86
2023/12/14 04:18:33;;;;;;;42.53;23.73;;;6.90;99.90;;;;;;2080095;28;20025;-86
2023/12/14 04:19:34;;;;;;;40.85;22.77;;;7.00;99.90;;;;;;2075656;28;20127;-86
2023/12/14 04:20:34;;;;;;;41.17;23.48;;;7.00;99.90;;;;;;2075770;28;20026;-86
2023/12/14 04:21:36;;;;;;;39.58;22.77;;;7.00;99.90;;;;;;2079439;28;20396;-83
2023/12/14 04:22:37;;;;;;;41.55;23.65;;;7.00;99.90;;;;;;2075836;28;20032;-86
2023/12/14 04:23:38;;;;;;;41.60;23.85;;;7.00;99.90;;;;;;2080547;28;20021;-86
2023/12/14 04:24:38;;;;;;;41.17;23.30;;;7.00;99.90;;;;;;2072081;28;20491;-86
2023/12/14 04:25:39;;;;;;;42.25;23.23;;;7.00;99.90;;;;;;2068594;28;20033;-85
2023/12/14 04:26:39;;;;;;;40.92;23.67;;;7.00;99.90;;;;;;2076648;28;20033;-86
2023/12/14 04:27:40;;;;;;;39.83;24.08;;;7.00;99.90;;;;;;2080183;28;20496;-85
2023/12/14 04:28:43;;;;;;;40.00;23.08;;;7.00;99.90;;;;;;2082458;28;20080;-84
2023/12/14 04:29:44;;;;;;;40.65;23.58;;;7.00;99.90;;;;;;2080531;28;20496;-85
2023/12/14 04:30:44;;;;;;;41.17;23.17;;;7.00;99.90;;;;;;2083793;28;20113;-85
2023/12/14 04:31:45;;;;;;;42.58;23.55;;;7.00;99.90;;;;;;2079542;28;20021;-85
2023/12/14 04:32:47;;;;;;;40.28;23.80;;;7.00;99.90;;;;;;2082712;28;20017;-85
2023/12/14 04:33:48;;;;;;;37.78;22.60;;;6.90;99.90;;;;;;2082199;28;20588;-84
2023/12/14 04:34:48;;;;;;;43.88;22.50;;;7.00;99.90;;;;;;2079428;28;20084;-85
2023/12/14 04:35:49;;;;;;;39.53;22.45;;;7.00;99.90;;;;;;2088217;28;20029;-85
2023/12/14 04:36:49;;;;;;;38.50;22.48;;;7.00;99.90;;;;;;2096185;28;20067;-85
2023/12/14 04:37:50;;;;;;;40.67;22.30;;;7.00;99.90;;;;;;2088621;28;20028;-86
2023/12/14 04:38:50;;;;;;;39.25;22.85;;;7.00;99.90;;;;;;2081827;28;20037;-85
2023/12/14 04:39:51;;;;;;;41.72;22.98;;;7.00;99.90;;;;;;2080548;28;20106;-85
2023/12/14 04:40:52;;;;;;;39.60;22.08;;;6.90;99.90;;;;;;2075931;28;20029;-86
2023/12/14 04:41:53;;;;;;;38.58;22.85;;;6.90;99.90;;;;;;2077056;28;20045;-85
2023/12/14 04:42:53;;;;;;;37.67;22.80;;;6.90;99.90;;;;;;2077184;28;20057;-85
2023/12/14 04:43:54;;;;;;;42.22;23.35;;;6.90;99.90;;;;;;2078598;28;20084;-85
2023/12/14 04:44:54;;;;;;;37.70;22.83;;;6.90;99.90;;;;;;2077515;28;20032;-87
2023/12/14 04:45:55;;;;;;;39.63;22.90;;;6.90;99.90;;;;;;2077917;28;20492;-84
2023/12/14 04:46:55;;;;;;;37.28;22.67;;;6.90;99.90;;;;;;2078054;28;20036;-86
2023/12/14 04:47:56;;;;;;;37.28;22.80;;;6.90;99.90;;;;;;2075937;28;20053;-88
2023/12/14 04:48:56;;;;;;;38.53;22.92;;;6.90;99.90;;;;;;2083792;28;20032;-86
2023/12/14 04:49:57;;;;;;;41.38;25.20;;;6.90;99.90;;;;;;2071529;28;20481;-87
2023/12/14 04:50:57;;;;;;;41.33;23.80;;;6.90;99.90;;;;;;2070008;28;20061;-86
2023/12/14 04:51:58;;;;;;;39.47;24.48;;;6.90;99.90;;;;;;2085356;28;20037;-87
2023/12/14 04:52:58;;;;;;;43.30;24.95;;;6.90;99.90;;;;;;2087816;28;20238;-85
2023/12/14 04:53:59;;;;;;;43.80;26.05;;;6.90;99.90;;;;;;2086633;28;20134;-85
2023/12/14 04:54:59;;;;;;;46.70;27.00;;;7.00;99.90;;;;;;2080417;28;20045;-86
2023/12/14 04:56:00;;;;;;;49.45;28.20;;;6.90;99.90;;;;;;2082517;28;20383;-84
2023/12/14 04:57:00;;;;;;;48.28;28.63;;;6.90;99.90;;;;;;2084831;28;20025;-85
2023/12/14 04:58:01;;;;;;;48.17;29.63;;;6.90;99.90;;;;;;2085604;28;20032;-84
2023/12/14 04:59:02;;;;;;;51.20;30.90;;;6.90;99.90;;;;;;2083451;28;20033;-83
2023/12/14 05:00:04;;;;;;;48.67;29.77;;;6.90;99.90;;;;;;2084224;28;20140;-85
2023/12/14 05:01:05;;;;;;;52.00;30.17;;;6.90;99.90;;;;;;2084573;28;20067;-85
2023/12/14 05:02:06;;;;;;;51.92;30.70;;;6.90;99.90;;;;;;2088189;28;20529;-84
2023/12/14 05:03:06;;;;;;;53.72;31.15;;;6.90;99.90;;;;;;2077171;28;20117;-84
2023/12/14 05:04:07;;;;;;;59.22;32.08;;;6.90;99.90;;;;;;2079885;28;20037;-84
2023/12/14 05:05:08;;;;;;;55.85;31.67;;;6.90;99.90;;;;;;2079426;28;20052;-86
2023/12/14 05:06:08;;;;;;;53.40;31.13;;;6.80;99.90;;;;;;2086727;28;20041;-83
2023/12/14 05:07:09;;;;;;;56.85;32.15;;;6.90;99.90;;;;;;2090853;28;20040;-76
2023/12/14 05:08:09;;;;;;;55.72;31.85;;;6.80;99.90;;;;;;2078953;28;20303;-76
2023/12/14 05:09:11;;;;;;;55.20;31.98;;;6.80;99.90;;;;;;2078914;28;20030;-73
2023/12/14 05:10:12;;;;;;;57.45;32.35;;;6.80;99.90;;;;;;2080031;28;20037;-76
2023/12/14 05:11:13;;;;;;;58.25;30.83;;;6.80;99.90;;;;;;2083813;28;20215;-79